Time;durP1;ratioP1;P1;durP2;ratioP2;P2;SDS_P1;SDS_P2;PMS_P1;PMS_P2;Temp;Humidity;BMP_temperature;BMP_pressure;BME280_temperature;BME280_humidity;BME280_pressure;Samples;Min_cycle;Max_cycle;Signal;HPM_P1;HPM_P2
2023/11/18 00:00:41;;;;;;;9.57;5.22;;;;;;;10.30;67.21;101846.09;4948140;28;97144;-76
2023/11/18 00:03:07;;;;;;;8.40;5.03;;;;;;;10.51;67.03;101845.69;4948321;28;102151;-75
2023/11/18 00:05:34;;;;;;;13.20;6.03;;;;;;;10.55;66.46;101844.78;4948928;28;99453;-75
2023/11/18 00:08:02;;;;;;;6.50;4.95;;;;;;;10.13;68.17;101851.59;4949178;28;96849;-76
2023/11/18 00:10:29;;;;;;;6.15;4.93;;;;;;;10.60;66.70;101855.25;4949381;28;97003;-76
2023/11/18 00:12:55;;;;;;;7.32;5.35;;;;;;;10.63;66.51;101858.69;4944157;28;98912;-76
2023/11/18 00:15:22;;;;;;;7.38;4.85;;;;;;;10.69;65.66;101863.91;4949397;28;98905;-75
2023/11/18 00:17:48;;;;;;;9.70;5.95;;;;;;;10.89;65.52;101860.88;4950568;28;96803;-75
2023/11/18 00:20:16;;;;;;;6.00;4.75;;;;;;;10.90;65.10;101862.59;4939018;28;97168;-76
2023/11/18 00:22:43;;;;;;;12.25;6.82;;;;;;;10.88;64.95;101874.13;4947447;28;97714;-75
2023/11/18 00:25:14;;;;;;;8.20;5.50;;;;;;;10.85;65.20;101871.53;4948873;28;101189;-75
2023/11/18 00:27:40;;;;;;;6.38;5.15;;;;;;;10.91;65.22;101879.34;4950233;28;96846;-74
2023/11/18 00:30:10;;;;;;;5.80;4.70;;;;;;;10.52;66.23;101876.53;4948892;28;96815;-74
2023/11/18 00:32:37;;;;;;;6.93;5.05;;;;;;;10.75;65.45;101890.22;4944132;28;99017;-74
2023/11/18 00:35:04;;;;;;;7.38;5.32;;;;;;;10.92;64.67;101878.44;4948924;28;100936;-74
2023/11/18 00:37:30;;;;;;;8.57;5.22;;;;;;;10.93;64.77;101883.72;4947497;28;98887;-74
2023/11/18 00:39:57;;;;;;;7.00;5.38;;;;;;;10.84;64.63;101888.28;4946015;28;97221;-73
2023/11/18 00:42:26;;;;;;;5.80;5.03;;;;;;;10.55;66.19;101899.41;4949640;28;97586;-74
2023/11/18 00:44:52;;;;;;;11.48;5.57;;;;;;;10.75;65.62;101897.28;4949843;28;98910;-74
2023/11/18 00:47:19;;;;;;;9.90;5.43;;;;;;;10.62;65.42;101893.09;4948265;28;96751;-73
2023/11/18 00:49:45;;;;;;;7.38;5.25;;;;;;;10.45;66.42;101906.59;4949117;28;97088;-74
2023/11/18 00:52:12;;;;;;;8.77;5.43;;;;;;;10.50;66.44;101903.91;4942466;28;98926;-73
2023/11/18 00:54:38;;;;;;;7.78;5.50;;;;;;;10.52;66.52;101913.53;4945593;28;99170;-74
2023/11/18 00:57:05;;;;;;;7.38;5.55;;;;;;;10.25;67.30;101909.56;4947400;28;96806;-73
2023/11/18 00:59:32;;;;;;;5.97;5.20;;;;;;;10.33;66.86;101918.25;4946687;28;96931;-74
2023/11/18 01:01:59;;;;;;;7.10;5.45;;;;;;;10.34;66.62;101920.00;4947571;28;99245;-73
2023/11/18 01:04:26;;;;;;;8.35;5.25;;;;;;;10.43;66.48;101921.63;4948878;28;98941;-76
2023/11/18 01:06:52;;;;;;;6.57;5.45;;;;;;;10.31;67.21;101929.72;4947485;28;96925;-75
2023/11/18 01:09:19;;;;;;;7.15;5.55;;;;;;;10.53;66.33;101932.91;4946520;28;97065;-75
2023/11/18 01:11:45;;;;;;;7.65;5.32;;;;;;;10.44;66.29;101927.75;4943879;28;99339;-74
2023/11/18 01:14:12;;;;;;;7.20;5.30;;;;;;;10.65;65.33;101930.91;4944952;28;99635;-75
2023/11/18 01:16:40;;;;;;;6.22;5.28;;;;;;;10.33;66.76;101938.50;4948258;28;97169;-75
2023/11/18 01:19:09;;;;;;;6.07;5.00;;;;;;;10.49;66.54;101933.84;4949017;28;97230;-75
2023/11/18 01:21:35;;;;;;;7.60;5.65;;;;;;;10.59;66.45;101940.72;4948574;28;99657;-71
2023/11/18 01:24:02;;;;;;;7.57;5.18;;;;;;;10.50;66.07;101939.09;4947617;28;98837;-71
2023/11/18 01:26:28;;;;;;;8.82;5.47;;;;;;;10.52;66.69;101945.25;4939690;28;96819;-72
2023/11/18 01:28:55;;;;;;;7.90;5.22;;;;;;;10.56;66.29;101943.44;4946729;28;97096;-70
2023/11/18 01:31:22;;;;;;;5.80;4.75;;;;;;;10.66;65.56;101947.66;4946934;28;99084;-70
2023/11/18 01:33:50;;;;;;;5.72;5.13;;;;;;;10.71;65.51;101951.09;4949512;28;99112;-70
2023/11/18 01:36:18;;;;;;;6.72;5.07;;;;;;;10.39;66.40;101951.63;4949371;28;96803;-71
2023/11/18 01:38:44;;;;;;;7.30;5.10;;;;;;;10.17;67.35;101947.56;4950267;28;99095;-71
2023/11/18 01:41:11;;;;;;;8.27;5.18;;;;;;;10.27;67.59;101944.75;4951886;28;99180;-71
2023/11/18 01:43:38;;;;;;;6.25;4.68;;;;;;;10.01;68.24;101946.88;4951382;28;101034;-70
2023/11/18 01:46:10;;;;;;;7.63;5.03;;;;;;;10.08;69.08;101950.31;4950785;28;96960;-70
2023/11/18 01:48:37;;;;;;;5.95;5.10;;;;;;;10.34;67.56;101941.13;4950725;28;97000;-70
2023/11/18 01:51:09;;;;;;;7.20;4.97;;;;;;;10.23;67.71;101952.75;4951641;28;99411;-71
2023/11/18 01:53:38;;;;;;;5.97;4.65;;;;;;;10.46;67.77;101952.38;4949221;28;97586;-71
2023/11/18 01:56:06;;;;;;;7.32;5.07;;;;;;;10.70;66.41;101951.97;4949387;28;96762;-71
2023/11/18 01:58:35;;;;;;;9.70;4.78;;;;;;;10.46;66.90;101955.03;4949948;28;96866;-72
2023/11/18 02:01:02;;;;;;;6.22;4.60;;;;;;;10.27;67.49;101949.16;4951177;28;99406;-73
2023/11/18 02:03:30;;;;;;;7.25;5.35;;;;;;;10.18;68.27;101955.44;4950394;28;98046;-73
2023/11/18 02:05:57;;;;;;;6.97;4.93;;;;;;;10.24;68.08;101959.78;4946427;28;96814;-76
2023/11/18 02:08:25;;;;;;;7.50;5.50;;;;;;;10.42;67.14;101954.22;4952455;28;96731;-73
2023/11/18 02:11:15;;;;;;;6.10;5.20;;;;;;;10.40;66.90;101963.94;4949266;28;98107;-73
2023/11/18 02:13:46;;;;;;;6.28;5.03;;;;;;;10.51;66.84;101969.91;4949394;28;99259;-73
2023/11/18 02:16:12;;;;;;;6.40;4.85;;;;;;;10.58;66.39;101974.22;4951734;28;98634;-73
2023/11/18 02:18:42;;;;;;;6.45;4.90;;;;;;;10.63;66.26;101969.72;4951650;28;96964;-73
2023/11/18 02:21:11;;;;;;;6.53;4.43;;;;;;;10.76;65.52;101971.25;4948229;28;99189;-72
2023/11/18 02:23:41;;;;;;;6.45;5.05;;;;;;;11.04;64.96;101981.34;4944734;28;99150;-72
2023/11/18 02:26:09;;;;;;;5.22;4.65;;;;;;;10.95;64.45;101973.59;4946653;28;97264;-72
2023/11/18 02:28:36;;;;;;;8.07;4.85;;;;;;;10.84;64.82;101975.53;4950924;28;96959;-75
2023/11/18 02:31:09;;;;;;;7.60;4.75;;;;;;;10.87;64.93;101978.16;4948942;28;99288;-75
2023/11/18 02:33:41;;;;;;;5.43;4.55;;;;;;;11.00;64.44;101982.31;4946056;28;98825;-75
2023/11/18 02:36:14;;;;;;;5.30;4.45;;;;;;;10.98;64.82;101976.19;4950107;28;96790;-75
2023/11/18 02:38:48;;;;;;;7.93;4.90;;;;;;;10.69;65.67;101969.63;4950188;28;96913;-75
2023/11/18 02:41:18;;;;;;;7.88;5.68;;;;;;;10.38;67.08;101982.44;4948002;28;101387;-75
2023/11/18 02:43:46;;;;;;;7.10;5.65;;;;;;;10.82;65.75;101985.28;4949941;28;101164;-75
2023/11/18 02:46:13;;;;;;;7.45;5.00;;;;;;;11.00;64.53;101977.03;4950340;28;97246;-76
2023/11/18 02:48:41;;;;;;;8.10;5.28;;;;;;;10.96;64.31;101989.41;4945904;28;97076;-75
2023/11/18 02:51:08;;;;;;;7.03;4.88;;;;;;;10.77;65.05;101983.59;4947629;28;99298;-74
2023/11/18 02:53:34;;;;;;;8.63;5.53;;;;;;;10.71;64.77;101983.69;4946959;28;100531;-75
2023/11/18 02:56:02;;;;;;;6.50;5.30;;;;;;;10.75;65.52;101985.41;4947792;28;96994;-74
2023/11/18 02:58:30;;;;;;;8.35;5.38;;;;;;;10.61;65.04;101976.81;4947612;28;97145;-74
2023/11/18 03:00:57;;;;;;;7.30;5.32;;;;;;;10.71;65.80;101974.88;4944248;28;99148;-75
2023/11/18 03:03:23;;;;;;;8.18;5.18;;;;;;;10.50;66.41;101983.19;4944706;28;98826;-74
2023/11/18 03:05:50;;;;;;;7.28;5.50;;;;;;;10.57;65.75;101977.75;4945442;28;99031;-74
2023/11/18 03:08:16;;;;;;;8.18;5.65;;;;;;;10.78;64.92;101982.69;4941753;28;98763;-74
2023/11/18 03:10:44;;;;;;;6.43;5.20;;;;;;;10.81;64.76;101972.97;4946269;28;99439;-75
2023/11/18 03:13:12;;;;;;;8.05;5.35;;;;;;;10.92;64.89;101981.56;4948268;28;99068;-75
2023/11/18 03:15:40;;;;;;;7.22;5.28;;;;;;;10.82;65.17;101966.78;4944264;28;96802;-75
2023/11/18 03:18:06;;;;;;;7.15;5.03;;;;;;;10.67;65.19;101976.72;4947558;28;97012;-76
2023/11/18 03:20:34;;;;;;;7.55;5.45;;;;;;;10.88;64.81;101982.53;4946755;28;102142;-75
2023/11/18 03:23:01;;;;;;;9.00;5.50;;;;;;;10.93;64.24;101983.34;4944015;28;97754;-74
2023/11/18 03:25:28;;;;;;;9.07;5.68;;;;;;;10.81;64.46;101989.72;4942684;28;99192;-75
2023/11/18 03:27:54;;;;;;;8.27;5.75;;;;;;;10.70;65.34;101987.22;4944147;28;97340;-76
2023/11/18 03:30:21;;;;;;;10.57;5.85;;;;;;;10.72;65.06;101981.91;4944941;28;99298;-75
2023/11/18 03:32:49;;;;;;;6.30;5.03;;;;;;;10.67;65.19;101982.00;4947168;28;99452;-71
2023/11/18 03:35:15;;;;;;;7.22;5.20;;;;;;;10.52;65.74;101991.94;4947983;28;97492;-72
2023/11/18 03:37:42;;;;;;;6.45;5.30;;;;;;;10.92;64.85;101993.03;4944511;28;97990;-72
2023/11/18 03:40:10;;;;;;;7.65;5.15;;;;;;;10.43;65.63;101985.03;4947492;28;99675;-73
2023/11/18 03:42:37;;;;;;;7.50;5.28;;;;;;;10.68;65.58;101989.03;4947778;28;98923;-71
2023/11/18 03:45:04;;;;;;;8.13;4.43;;;;;;;10.50;65.62;101999.88;4948076;28;97779;-73
2023/11/18 03:47:30;;;;;;;7.18;5.38;;;;;;;10.61;65.21;101987.38;4945005;28;96876;-71
2023/11/18 03:50:02;;;;;;;7.90;5.25;;;;;;;10.97;64.42;101995.59;4947713;28;98803;-71
2023/11/18 03:52:28;;;;;;;9.48;5.20;;;;;;;10.72;64.56;101989.84;4939011;28;98583;-75
2023/11/18 03:54:56;;;;;;;6.55;4.88;;;;;;;10.81;64.58;101995.00;4948406;28;96823;-75
2023/11/18 03:57:22;;;;;;;9.18;5.03;;;;;;;10.84;64.42;101999.34;4940940;28;97788;-75
2023/11/18 03:59:49;;;;;;;8.05;4.82;;;;;;;10.74;64.83;101994.22;4945050;28;99244;-75
2023/11/18 04:02:15;;;;;;;7.22;5.45;;;;;;;10.55;65.54;101997.19;4944852;28;98972;-74
2023/11/18 04:04:41;;;;;;;8.00;4.82;;;;;;;10.23;66.66;102005.59;4947085;28;97318;-74
2023/11/18 04:07:09;;;;;;;6.00;4.80;;;;;;;10.24;66.95;102004.72;4947545;28;96841;-74
2023/11/18 04:09:36;;;;;;;7.70;5.53;;;;;;;10.36;66.53;102010.69;4949117;28;102390;-74
2023/11/18 04:12:03;;;;;;;6.93;4.75;;;;;;;10.75;65.03;102001.25;4948193;28;98806;-75
2023/11/18 04:14:29;;;;;;;6.65;4.97;;;;;;;10.59;65.56;102017.38;4947868;28;96764;-74
2023/11/18 04:16:57;;;;;;;9.27;4.97;;;;;;;10.63;65.13;102012.00;4947903;28;96932;-74
2023/11/18 04:19:22;;;;;;;11.65;5.65;;;;;;;10.66;65.08;102016.38;4949064;28;99374;-75
2023/11/18 04:21:49;;;;;;;;;;;;;;;10.41;65.95;102020.31;4946792;28;99030;-74
2023/11/18 04:24:17;;;;;;;13.18;6.00;;;;;;;10.31;66.56;102014.25;4948939;28;98148;-75
2023/11/18 04:26:43;;;;;;;10.10;5.63;;;;;;;10.31;66.49;102014.25;4947871;28;99045;-74
2023/11/18 04:29:10;;;;;;;8.52;5.65;;;;;;;10.30;66.88;102025.75;4954923;28;102030;-74
2023/11/18 04:31:37;;;;;;;8.68;5.55;;;;;;;10.50;66.04;102030.75;4951402;28;97501;-75
2023/11/18 04:34:04;;;;;;;11.38;6.50;;;;;;;10.55;65.71;102032.41;4956509;28;96900;-75
2023/11/18 04:36:31;;;;;;;11.50;6.55;;;;;;;10.40;66.20;102035.28;4946500;28;96851;-75
2023/11/18 04:38:57;;;;;;;10.50;6.72;;;;;;;10.26;66.87;102032.81;4941869;28;97842;-74
2023/11/18 04:41:26;;;;;;;9.07;6.03;;;;;;;10.28;67.44;102038.09;4947870;28;101411;-74
2023/11/18 04:43:53;;;;;;;12.65;7.05;;;;;;;10.24;66.99;102036.41;4949283;28;96861;-76
2023/11/18 04:46:19;;;;;;;9.48;5.65;;;;;;;10.19;67.25;102032.94;4945963;28;99025;-75
2023/11/18 04:48:46;;;;;;;10.55;6.57;;;;;;;10.46;66.84;102029.91;4948046;28;99200;-75
2023/11/18 04:51:12;;;;;;;10.40;6.20;;;;;;;10.14;67.43;102034.72;4946954;28;98795;-74
2023/11/18 04:53:40;;;;;;;10.18;7.05;;;;;;;10.46;66.77;102035.19;4947295;28;97603;-75
2023/11/18 04:56:09;;;;;;;10.48;5.82;;;;;;;10.19;67.33;102035.56;4946938;28;98657;-75
2023/11/18 04:58:38;;;;;;;8.60;6.00;;;;;;;10.47;66.87;102036.06;4944188;28;99255;-75
2023/11/18 05:01:05;;;;;;;9.50;6.15;;;;;;;10.35;67.52;102038.00;4946755;28;99202;-75
2023/11/18 05:03:31;;;;;;;9.45;6.40;;;;;;;10.14;67.22;102047.94;4945897;28;97996;-76
2023/11/18 05:05:57;;;;;;;7.53;5.93;;;;;;;10.44;66.75;102041.38;4945263;28;96982;-73
2023/11/18 05:08:24;;;;;;;9.52;6.53;;;;;;;10.33;66.88;102044.19;4948978;28;100918;-71
2023/11/18 05:10:51;;;;;;;10.93;6.15;;;;;;;10.28;66.98;102046.91;4957973;28;99318;-73
2023/11/18 05:13:18;;;;;;;9.98;6.28;;;;;;;10.31;67.24;102040.69;4955367;28;97310;-72
2023/11/18 05:15:48;;;;;;;12.00;6.35;;;;;;;10.42;66.88;102049.34;4947105;28;100731;-71
2023/11/18 05:18:15;;;;;;;8.30;6.50;;;;;;;10.49;65.94;102039.56;4941462;28;98209;-71
2023/11/18 05:20:41;;;;;;;8.65;6.25;;;;;;;10.73;64.74;102044.47;4947002;28;101596;-76
2023/11/18 05:23:09;;;;;;;9.13;5.75;;;;;;;10.41;66.12;102038.78;4939882;28;97461;-77
2023/11/18 05:25:36;;;;;;;10.95;6.72;;;;;;;10.67;65.74;102049.84;4938488;28;98811;-75
2023/11/18 05:28:03;;;;;;;8.60;6.25;;;;;;;10.59;65.37;102047.31;4945550;28;98931;-75
2023/11/18 05:30:30;;;;;;;10.63;6.05;;;;;;;10.18;67.07;102045.25;4946302;28;97867;-76
2023/11/18 05:32:58;;;;;;;11.73;6.22;;;;;;;10.21;67.10;102044.34;4942522;28;96766;-75
2023/11/18 05:35:28;;;;;;;9.75;6.55;;;;;;;10.24;67.19;102041.69;4945812;28;96847;-74
2023/11/18 05:37:54;;;;;;;10.18;6.57;;;;;;;10.22;67.14;102049.63;4943360;28;99212;-76
2023/11/18 05:40:21;;;;;;;9.88;6.40;;;;;;;10.20;67.49;102047.88;4948077;28;98805;-75
2023/11/18 05:42:51;;;;;;;13.48;7.30;;;;;;;10.38;66.67;102048.50;4946200;28;98399;-75
2023/11/18 05:45:27;;;;;;;10.77;7.25;;;;;;;10.62;65.80;102047.28;4947706;28;97847;-75
2023/11/18 05:47:54;;;;;;;10.48;6.60;;;;;;;10.65;65.33;102057.81;4944927;28;100936;-75
2023/11/18 05:50:22;;;;;;;10.82;7.40;;;;;;;10.52;65.85;102056.22;4947055;28;99539;-75
2023/11/18 05:52:49;;;;;;;10.02;6.82;;;;;;;10.59;65.88;102051.72;4947335;28;96756;-75
2023/11/18 05:55:15;;;;;;;14.10;7.07;;;;;;;10.45;65.71;102056.34;4945982;28;96919;-74
2023/11/18 05:57:45;;;;;;;12.40;6.63;;;;;;;10.30;66.40;102050.41;4942346;28;98847;-75
2023/11/18 06:00:15;;;;;;;11.90;6.93;;;;;;;9.92;67.47;102056.13;4945585;28;98807;-76
2023/11/18 06:02:41;;;;;;;10.63;6.95;;;;;;;10.13;67.60;102054.09;4944212;28;97634;-75
2023/11/18 06:05:09;;;;;;;11.75;7.70;;;;;;;10.38;66.28;102052.91;4948742;28;96901;-73
2023/11/18 06:07:36;;;;;;;8.50;6.50;;;;;;;10.36;66.16;102054.72;4940947;28;98234;-72
2023/11/18 06:10:05;;;;;;;10.10;6.97;;;;;;;10.36;65.93;102050.31;4940371;28;98907;-75
2023/11/18 06:12:31;;;;;;;9.05;6.70;;;;;;;10.24;65.98;102058.38;4939593;28;98816;-74
2023/11/18 06:14:58;;;;;;;17.83;6.85;;;;;;;10.02;67.27;102059.53;4948506;28;97193;-73
2023/11/18 06:17:24;;;;;;;13.70;6.82;;;;;;;10.07;67.31;102062.97;4947301;28;98617;-79
2023/11/18 06:19:51;;;;;;;12.15;7.28;;;;;;;10.13;67.45;102056.75;4948381;28;98801;-77
2023/11/18 06:22:17;;;;;;;10.25;6.35;;;;;;;9.98;67.76;102058.69;4947968;28;97534;-76
2023/11/18 06:24:45;;;;;;;8.60;6.35;;;;;;;9.98;67.60;102058.69;4952684;28;97074;-78
2023/11/18 06:27:12;;;;;;;9.30;7.00;;;;;;;9.95;67.29;102063.13;4950005;28;98290;-78
2023/11/18 06:29:39;;;;;;;10.27;7.18;;;;;;;10.13;67.47;102062.91;4951016;28;97740;-78
2023/11/18 06:32:07;;;;;;;9.23;6.60;;;;;;;9.97;67.39;102064.88;4950872;28;96731;-77
2023/11/18 06:34:34;;;;;;;10.55;7.22;;;;;;;9.92;68.23;102061.41;4950563;28;96898;-74
2023/11/18 06:37:00;;;;;;;11.18;7.63;;;;;;;10.13;67.51;102064.66;4950933;28;101728;-76
2023/11/18 06:39:29;;;;;;;11.90;7.50;;;;;;;10.34;66.48;102067.06;4949991;28;97654;-75
2023/11/18 06:41:58;;;;;;;11.20;6.53;;;;;;;10.23;67.36;102074.28;4947764;28;98216;-74
2023/11/18 06:44:24;;;;;;;9.57;6.63;;;;;;;10.23;66.94;102071.63;4950002;28;98114;-74
2023/11/18 06:46:51;;;;;;;10.88;6.82;;;;;;;10.15;66.73;102073.47;4950380;28;98428;-75
2023/11/18 06:49:19;;;;;;;9.38;6.38;;;;;;;10.03;67.79;102085.06;4950491;28;98747;-74
2023/11/18 06:51:45;;;;;;;11.20;6.43;;;;;;;9.72;68.79;102081.00;4950618;28;96709;-75
2023/11/18 06:54:13;;;;;;;11.48;7.18;;;;;;;10.00;67.98;102083.31;4951176;28;96731;-75
2023/11/18 06:56:43;;;;;;;13.50;7.47;;;;;;;9.55;69.73;102089.09;4949645;28;99717;-74
2023/11/18 06:59:12;;;;;;;9.75;6.68;;;;;;;9.72;69.13;102092.44;4949158;28;99768;-75
2023/11/18 07:01:40;;;;;;;10.75;7.15;;;;;;;9.68;69.13;102085.44;4949510;28;97897;-73
2023/11/18 07:04:08;;;;;;;10.52;7.55;;;;;;;9.85;68.83;102088.75;4949387;28;96811;-74
2023/11/18 07:06:37;;;;;;;13.40;7.50;;;;;;;9.96;68.38;102086.03;4949783;28;99638;-74
2023/11/18 07:09:12;;;;;;;13.85;8.13;;;;;;;9.94;67.99;102082.50;4951631;28;98756;-74
2023/11/18 07:11:38;;;;;;;14.77;7.43;;;;;;;9.99;68.83;102078.91;4950880;28;96748;-73
2023/11/18 07:14:04;;;;;;;13.13;8.73;;;;;;;10.19;67.99;102094.56;4945228;28;96882;-75
2023/11/18 07:16:32;;;;;;;14.25;8.57;;;;;;;9.98;68.08;102095.66;4950193;28;98379;-75
2023/11/18 07:18:59;;;;;;;14.13;8.18;;;;;;;10.08;67.84;102096.44;4949046;28;97737;-74
2023/11/18 07:21:25;;;;;;;14.63;8.10;;;;;;;10.23;67.01;102096.28;4950603;28;97754;-75
2023/11/18 07:23:52;;;;;;;13.63;8.02;;;;;;;10.27;67.18;102099.75;4949673;28;96837;-73
2023/11/18 07:26:18;;;;;;;13.18;8.07;;;;;;;10.25;67.12;102104.16;4947885;28;99986;-74
2023/11/18 07:28:45;;;;;;;14.35;8.52;;;;;;;10.42;66.37;102104.84;4949089;28;99298;-74
2023/11/18 07:31:11;;;;;;;14.15;7.95;;;;;;;10.38;66.67;102111.03;4950628;28;97722;-74
2023/11/18 07:33:39;;;;;;;11.93;7.95;;;;;;;10.43;66.25;102119.81;4951457;28;96760;-74
2023/11/18 07:36:11;;;;;;;15.35;9.45;;;;;;;10.63;65.72;102124.81;4949724;28;97837;-74
2023/11/18 07:38:37;;;;;;;18.50;10.20;;;;;;;10.60;65.67;102132.78;4949293;28;99720;-74
2023/11/18 07:41:04;;;;;;;13.35;8.25;;;;;;;10.57;65.35;102133.69;4946720;28;96862;-75
2023/11/18 07:43:30;;;;;;;16.77;9.00;;;;;;;10.75;65.34;102136.09;4949956;28;96867;-74
2023/11/18 07:45:57;;;;;;;12.70;8.27;;;;;;;10.69;64.89;102138.84;4949268;28;98011;-74
2023/11/18 07:48:23;;;;;;;13.85;9.57;;;;;;;10.89;64.22;102146.47;4949066;28;99006;-74
2023/11/18 07:50:51;;;;;;;13.32;7.93;;;;;;;10.48;65.09;102141.75;4950130;28;96658;-74
2023/11/18 07:53:18;;;;;;;14.65;8.10;;;;;;;10.32;66.36;102149.00;4950732;28;99447;-75
2023/11/18 07:55:44;;;;;;;15.45;8.57;;;;;;;10.59;65.76;102153.06;4949482;28;98891;-75
2023/11/18 07:58:12;;;;;;;16.67;9.55;;;;;;;10.94;64.43;102143.75;4948258;28;101875;-75
2023/11/18 08:00:38;;;;;;;13.82;8.77;;;;;;;10.80;64.29;102151.88;4950083;28;96773;-75
2023/11/18 08:03:07;;;;;;;12.68;8.35;;;;;;;10.62;64.74;102154.78;4948095;28;97078;-74
2023/11/18 08:05:33;;;;;;;12.73;7.90;;;;;;;10.69;65.23;102164.41;4948980;28;99304;-74
2023/11/18 08:08:01;;;;;;;11.65;7.88;;;;;;;11.05;63.07;102160.34;4948586;28;98326;-75
2023/11/18 08:10:28;;;;;;;14.45;8.13;;;;;;;10.64;64.14;102155.63;4948477;28;98102;-74
2023/11/18 08:12:55;;;;;;;14.13;9.10;;;;;;;11.06;63.48;102155.03;4949019;28;96820;-74
2023/11/18 08:15:22;;;;;;;13.43;8.57;;;;;;;11.08;63.55;102165.59;4949668;28;101683;-74
2023/11/18 08:17:48;;;;;;;16.65;8.52;;;;;;;10.95;63.73;102164.03;4949220;28;98870;-74
2023/11/18 08:20:15;;;;;;;13.60;8.50;;;;;;;10.94;63.65;102156.97;4949230;28;99738;-74
2023/11/18 08:22:43;;;;;;;11.65;7.97;;;;;;;10.88;63.50;102151.78;4948049;28;96904;-74
2023/11/18 08:25:12;;;;;;;13.30;7.50;;;;;;;10.88;63.87;102154.44;4948494;28;101717;-75
2023/11/18 08:27:39;;;;;;;13.52;7.32;;;;;;;11.07;62.79;102150.63;4950093;28;99251;-76
2023/11/18 08:30:11;;;;;;;13.00;7.20;;;;;;;10.89;63.37;102148.25;4950291;28;97146;-76
2023/11/18 08:32:37;;;;;;;14.30;7.38;;;;;;;10.89;63.51;102157.06;4949259;28;96837;-75
2023/11/18 08:35:06;;;;;;;11.32;7.80;;;;;;;11.05;62.75;102160.34;4949291;28;101573;-75
2023/11/18 08:37:34;;;;;;;14.63;7.03;;;;;;;11.00;63.08;102165.69;4948796;28;98813;-74
2023/11/18 08:40:01;;;;;;;11.82;7.65;;;;;;;11.05;62.82;102155.91;4948569;28;96857;-73
2023/11/18 08:42:34;;;;;;;14.18;7.55;;;;;;;10.87;63.03;102150.03;4949187;28;96923;-75
2023/11/18 08:45:01;;;;;;;16.25;8.13;;;;;;;10.95;63.46;102150.81;4948355;28;99201;-74
2023/11/18 08:47:27;;;;;;;10.02;7.20;;;;;;;11.11;63.08;102147.00;4948331;28;98166;-73
2023/11/18 08:49:55;;;;;;;11.35;7.40;;;;;;;11.38;62.46;102140.41;4948603;28;97153;-74
2023/11/18 08:52:21;;;;;;;12.10;7.75;;;;;;;11.17;62.02;102142.50;4947847;28;96883;-74
2023/11/18 08:57:48;;;;;;;11.75;6.82;;;;;;;11.16;62.03;102159.25;4945810;28;97432;-74
2023/11/18 09:00:42;;;;;;;12.13;7.10;;;;;;;11.07;62.34;102161.19;4947282;28;96743;-73
2023/11/18 09:03:05;;;;;;;11.43;7.28;;;;;;;10.74;62.91;102163.44;4946584;28;97220;-74
2023/11/18 09:05:32;;;;;;;13.57;7.45;;;;;;;10.47;64.08;102169.06;4948684;28;99244;-74
2023/11/18 09:08:00;;;;;;;8.55;6.18;;;;;;;10.54;63.73;102168.09;4948014;28;99029;-74
2023/11/18 09:10:28;;;;;;;9.57;6.93;;;;;;;10.81;63.28;102176.56;4948350;28;96780;-73
2023/11/18 09:12:57;;;;;;;11.05;5.95;;;;;;;10.81;63.29;102179.22;4945967;28;97568;-75
2023/11/18 09:15:23;;;;;;;11.07;7.00;;;;;;;10.72;63.04;102178.44;4942240;28;101926;-74
2023/11/18 09:17:49;;;;;;;11.30;6.60;;;;;;;10.83;63.32;102188.00;4947290;28;98938;-74
2023/11/18 09:20:20;;;;;;;8.90;6.70;;;;;;;10.77;63.49;102187.16;4947566;28;96805;-74
2023/11/18 09:22:47;;;;;;;9.07;5.97;;;;;;;11.02;62.61;102190.38;4946359;28;99102;-75
2023/11/18 09:25:13;;;;;;;10.00;6.47;;;;;;;10.95;62.45;102187.81;4939500;28;101837;-75
2023/11/18 09:27:40;;;;;;;13.75;6.07;;;;;;;11.07;61.44;102185.00;4945258;28;101547;-75
2023/11/18 09:30:13;;;;;;;10.80;6.70;;;;;;;10.88;62.33;102186.16;4950029;28;96826;-74
2023/11/18 09:32:41;;;;;;;9.15;6.75;;;;;;;11.03;62.04;102184.16;4956924;28;96777;-75
2023/11/18 09:35:09;;;;;;;10.32;6.60;;;;;;;11.19;61.68;102180.41;4953629;28;99256;-75
2023/11/18 09:37:38;;;;;;;8.10;5.72;;;;;;;11.26;61.12;102183.81;4947971;28;101885;-75
2023/11/18 09:40:11;;;;;;;9.73;5.60;;;;;;;11.15;60.86;102169.91;4944016;28;96851;-74
2023/11/18 09:42:38;;;;;;;9.60;6.07;;;;;;;11.29;60.68;102169.69;4948748;28;96799;-75
2023/11/18 09:45:06;;;;;;;9.30;6.00;;;;;;;11.49;60.04;102171.06;4946701;28;100019;-75
2023/11/18 09:47:39;;;;;;;9.05;6.28;;;;;;;11.32;60.84;102173.13;4946575;28;101758;-75
2023/11/18 09:50:11;;;;;;;8.32;5.95;;;;;;;11.10;61.09;102174.34;4943927;28;96955;-75
2023/11/18 09:52:43;;;;;;;10.63;6.15;;;;;;;11.10;61.39;102177.00;4945640;28;96887;-75
2023/11/18 09:55:19;;;;;;;10.63;5.50;;;;;;;11.30;60.87;102185.50;4951055;28;98895;-75
2023/11/18 09:57:57;;;;;;;8.73;4.95;;;;;;;11.56;59.55;102191.25;4950040;28;101181;-75
2023/11/18 10:00:27;;;;;;;9.75;5.40;;;;;;;11.35;59.73;102188.09;4949118;28;98143;-75
2023/11/18 10:02:56;;;;;;;7.68;4.97;;;;;;;11.17;60.35;102184.81;4952047;28;97337;-74
2023/11/18 10:05:26;;;;;;;7.60;5.25;;;;;;;11.46;59.90;102187.03;4949643;28;99009;-74
2023/11/18 10:07:53;;;;;;;7.55;5.25;;;;;;;10.84;60.97;102190.59;4949092;28;99257;-74
2023/11/18 10:10:20;;;;;;;6.63;4.30;;;;;;;10.81;61.67;102195.06;4949407;28;96839;-75
2023/11/18 10:12:51;;;;;;;6.50;5.05;;;;;;;11.06;60.81;102191.19;4949853;28;96899;-74
2023/11/18 10:15:22;;;;;;;8.40;4.95;;;;;;;11.39;60.48;102184.50;4950628;28;99325;-74
2023/11/18 10:17:57;;;;;;;8.88;5.72;;;;;;;11.84;58.10;102182.88;4950860;28;98993;-74
2023/11/18 10:20:45;;;;;;;8.98;4.63;;;;;;;12.20;56.39;102182.19;4946398;28;97745;-75
2023/11/18 10:23:12;;;;;;;7.03;5.07;;;;;;;12.10;56.06;102179.75;4949538;28;96751;-74
2023/11/18 10:25:46;;;;;;;8.98;6.18;;;;;;;12.24;56.40;102175.94;4948715;28;99486;-75
2023/11/18 10:28:22;;;;;;;9.93;5.88;;;;;;;12.28;56.32;102169.66;4948524;28;101472;-74
2023/11/18 10:30:48;;;;;;;6.72;5.18;;;;;;;11.83;57.58;102174.06;4945087;28;97160;-75
2023/11/18 10:33:16;;;;;;;10.80;4.90;;;;;;;12.08;57.17;102171.81;4950629;28;96802;-75
2023/11/18 10:35:55;;;;;;;7.97;5.30;;;;;;;11.93;56.99;102174.78;4949115;28;101647;-73
2023/11/18 10:38:25;;;;;;;8.48;5.63;;;;;;;11.93;56.74;102166.81;4944883;28;99605;-74
2023/11/18 10:40:53;;;;;;;10.38;6.57;;;;;;;11.68;57.95;102170.78;4950436;28;96764;-74
2023/11/18 10:43:19;;;;;;;10.75;5.90;;;;;;;11.41;59.01;102172.13;4950364;28;99017;-75
2023/11/18 10:45:46;;;;;;;11.95;6.40;;;;;;;11.62;59.25;102170.91;4950744;28;99374;-75
2023/11/18 10:48:16;;;;;;;13.05;7.07;;;;;;;11.47;59.75;102178.19;4947126;28;101035;-74
2023/11/18 10:50:43;;;;;;;20.83;8.00;;;;;;;11.64;59.11;102174.38;4949123;28;96913;-74
2023/11/18 10:53:15;;;;;;;10.20;7.25;;;;;;;11.43;59.91;102181.78;4950536;28;96834;-74
2023/11/18 10:55:42;;;;;;;14.63;8.48;;;;;;;11.72;59.60;102178.63;4949172;28;99944;-73
2023/11/18 10:58:09;;;;;;;13.05;8.35;;;;;;;12.01;58.50;102186.09;4947057;28;99391;-73
2023/11/18 11:00:51;;;;;;;14.52;8.15;;;;;;;11.84;58.56;102183.75;4949104;28;98808;-74
2023/11/18 11:03:18;;;;;;;12.00;7.03;;;;;;;11.87;58.04;102185.47;4949327;28;96806;-73
2023/11/18 11:05:45;;;;;;;12.43;7.22;;;;;;;11.81;58.51;102181.16;4947940;28;99293;-74
2023/11/18 11:08:15;;;;;;;10.40;7.22;;;;;;;11.57;58.49;102178.91;4947378;28;98866;-73
2023/11/18 11:10:43;;;;;;;13.02;7.70;;;;;;;11.64;58.21;102182.31;4949558;28;96747;-76
2023/11/18 11:13:11;;;;;;;12.10;7.30;;;;;;;11.50;58.95;102187.84;4950092;28;96812;-74
2023/11/18 11:15:45;;;;;;;12.35;8.20;;;;;;;11.37;59.67;102187.16;4949796;28;99230;-75
2023/11/18 11:18:22;;;;;;;11.00;7.28;;;;;;;11.49;59.30;102192.25;4945618;28;98136;-74
2023/11/18 11:21:03;;;;;;;10.55;7.15;;;;;;;11.25;60.26;102202.34;4946451;28;96875;-74
2023/11/18 11:23:43;;;;;;;10.95;6.75;;;;;;;11.56;59.28;102187.72;4944264;28;96754;-73
2023/11/18 11:26:20;;;;;;;11.85;6.80;;;;;;;11.40;59.48;102180.97;4944739;28;98302;-73
2023/11/18 11:29:02;;;;;;;13.45;6.80;;;;;;;11.67;58.13;102169.03;4947822;28;98980;-75